sensor_id;sensor_type;location;lat;lon;timestamp;noise_LAeq;noise_LA_min;noise_LA_max;noise_LA01;noise_LA95
4048;Laerm;2038;51.728;6.674;2023-10-19T00:02:17;40.02;36.91;44.23;;
4048;Laerm;2038;51.728;6.674;2023-10-19T00:05:00;40.28;37.32;46.95;;
4048;Laerm;2038;51.728;6.674;2023-10-19T00:08:02;40.42;37.70;46.20;;
4048;Laerm;2038;51.728;6.674;2023-10-19T00:11:16;40.48;36.69;47.88;;
4048;Laerm;2038;51.728;6.674;2023-10-19T00:13:56;41.32;38.21;50.03;;
4048;Laerm;2038;51.728;6.674;2023-10-19T00:16:24;40.47;36.91;45.57;;
4048;Laerm;2038;51.728;6.674;2023-10-19T00:18:58;40.20;37.12;45.54;;
4048;Laerm;2038;51.728;6.674;2023-10-19T00:21:35;40.51;36.20;44.69;;
4048;Laerm;2038;51.728;6.674;2023-10-19T00:24:22;40.23;36.91;46.82;;
4048;Laerm;2038;51.728;6.674;2023-10-19T00:26:49;39.88;36.91;45.97;;
4048;Laerm;2038;51.728;6.674;2023-10-19T00:29:22;40.17;37.12;43.86;;
4048;Laerm;2038;51.728;6.674;2023-10-19T00:32:02;40.38;37.12;50.22;;
4048;Laerm;2038;51.728;6.674;2023-10-19T00:34:51;40.56;37.32;53.73;;
4048;Laerm;2038;51.728;6.674;2023-10-19T00:38:10;44.55;37.12;63.77;;
4048;Laerm;2038;51.728;6.674;2023-10-19T00:41:09;40.48;36.45;47.19;;
4048;Laerm;2038;51.728;6.674;2023-10-19T00:43:40;45.56;36.69;63.70;;
4048;Laerm;2038;51.728;6.674;2023-10-19T00:46:25;39.93;36.69;47.91;;
4048;Laerm;2038;51.728;6.674;2023-10-19T00:49:27;39.91;35.04;46.20;;
4048;Laerm;2038;51.728;6.674;2023-10-19T00:52:01;39.64;35.94;43.77;;
4048;Laerm;2038;51.728;6.674;2023-10-19T00:55:06;40.18;37.12;43.63;;
4048;Laerm;2038;51.728;6.674;2023-10-19T00:57:52;44.11;36.69;60.53;;
4048;Laerm;2038;51.728;6.674;2023-10-19T01:00:30;40.24;36.91;45.36;;
4048;Laerm;2038;51.728;6.674;2023-10-19T01:03:28;40.08;36.69;44.69;;
4048;Laerm;2038;51.728;6.674;2023-10-19T01:05:58;39.90;37.32;43.19;;
4048;Laerm;2038;51.728;6.674;2023-10-19T01:08:26;40.32;37.88;44.54;;
4048;Laerm;2038;51.728;6.674;2023-10-19T01:11:13;40.76;38.67;51.30;;
4048;Laerm;2038;51.728;6.674;2023-10-19T01:14:23;43.85;39.11;59.96;;
4048;Laerm;2038;51.728;6.674;2023-10-19T01:16:57;41.37;38.67;50.71;;
4048;Laerm;2038;51.728;6.674;2023-10-19T01:19:42;41.46;38.95;52.09;;
4048;Laerm;2038;51.728;6.674;2023-10-19T01:22:12;40.97;38.52;51.47;;
4048;Laerm;2038;51.728;6.674;2023-10-19T01:24:54;40.62;38.21;53.15;;
4048;Laerm;2038;51.728;6.674;2023-10-19T01:31:05;40.31;37.70;50.97;;
4048;Laerm;2038;51.728;6.674;2023-10-19T01:33:44;40.33;37.70;49.62;;
4048;Laerm;2038;51.728;6.674;2023-10-19T01:36:16;42.31;38.05;57.49;;
4048;Laerm;2038;51.728;6.674;2023-10-19T01:38:58;40.52;37.88;48.03;;
4048;Laerm;2038;51.728;6.674;2023-10-19T01:42:03;56.20;38.05;70.49;;
4048;Laerm;2038;51.728;6.674;2023-10-19T01:44:33;40.58;37.70;48.40;;
4048;Laerm;2038;51.728;6.674;2023-10-19T01:47:02;40.29;37.52;45.51;;
4048;Laerm;2038;51.728;6.674;2023-10-19T01:49:31;41.75;36.69;54.81;;
4048;Laerm;2038;51.728;6.674;2023-10-19T01:52:04;40.95;37.52;45.23;;
4048;Laerm;2038;51.728;6.674;2023-10-19T01:54:30;40.28;37.32;42.93;;
4048;Laerm;2038;51.728;6.674;2023-10-19T01:57:00;40.25;37.52;42.93;;
4048;Laerm;2038;51.728;6.674;2023-10-19T01:59:35;40.29;37.32;49.70;;
4048;Laerm;2038;51.728;6.674;2023-10-19T02:02:10;40.45;37.52;44.73;;
4048;Laerm;2038;51.728;6.674;2023-10-19T02:04:43;40.37;37.52;42.88;;
4048;Laerm;2038;51.728;6.674;2023-10-19T02:07:17;40.99;38.21;43.81;;
4048;Laerm;2038;51.728;6.674;2023-10-19T02:09:56;46.43;37.70;63.81;;
4048;Laerm;2038;51.728;6.674;2023-10-19T02:12:25;46.46;37.88;65.31;;
4048;Laerm;2038;51.728;6.674;2023-10-19T02:15:20;40.66;37.88;44.11;;
4048;Laerm;2038;51.728;6.674;2023-10-19T02:17:48;40.72;36.91;44.47;;
4048;Laerm;2038;51.728;6.674;2023-10-19T02:20:18;44.10;37.52;59.84;;
4048;Laerm;2038;51.728;6.674;2023-10-19T02:22:59;40.44;37.12;44.27;;
4048;Laerm;2038;51.728;6.674;2023-10-19T02:25:33;44.93;37.88;60.85;;
4048;Laerm;2038;51.728;6.674;2023-10-19T02:28:11;40.81;37.88;48.42;;
4048;Laerm;2038;51.728;6.674;2023-10-19T02:30:38;44.28;37.12;61.00;;
4048;Laerm;2038;51.728;6.674;2023-10-19T02:33:08;40.69;37.87;43.19;;
4048;Laerm;2038;51.728;6.674;2023-10-19T02:35:34;42.42;36.91;55.45;;
4048;Laerm;2038;51.728;6.674;2023-10-19T02:38:28;50.30;37.70;68.81;;
